Latest Weather Observations for Edinburgh

IDS60901

Issued at 2:11 pm CST Sunday 18 August 2019 (issued every 10 minutes, with the page automatically refreshed every 10 minutes)

About weather observations | Map of Adelaide area stations | Latest observations for Adelaide area | Other Formats
Station Details ID: 023083 Name: EDINBURGH RAAF Lat: -34.71 Lon: 138.62 Height: 16.54 m
Data from the previous 72 hours. | See also: Recent months at Edinburgh
Date/Time
CST
Temp
°C
App
Temp
°C
Dew
Point
°C
Rel
Hum
%
Delta-T
°C
Wind Press
QNH
hPa
Press
MSL
hPa
Rain since
9am
mm
Dir  Spd
km/h
Gust
km/h
Spd
kts
Gust
kts
18/02:02pm 9.0 -1.1 3.8 70 2.3 SW 46 72 25 39 1013.1 1013.1 1.6
18/02:00pm 9.1 -1.4 3.7 69 2.3 WSW 48 72 26 39 1013.0 1013.0 1.6
18/01:56pm 10.4 1.4 4.3 66 2.7 W 41 72 22 39 1012.8 1012.8 1.6
18/01:54pm 11.4 3.7 5.5 67 2.7 W 35 72 19 39 1012.7 1012.7 1.6
18/01:53pm 11.9 4.6 5.3 64 3.0 W 33 67 18 36 1012.6 1012.6 1.6
18/01:39pm 12.8 7.1 8.3 74 2.2 WSW 28 48 15 26 1012.3 1012.3 1.6
18/01:30pm 11.4 5.6 6.1 70 2.5 WSW 26 33 14 18 1012.4 1012.4 1.6
18/01:00pm 9.8 5.4 7.4 85 1.1 WSW 20 28 11 15 1012.7 1012.7 1.6
18/12:51pm 8.3 2.8 5.9 85 1.1 SW 24 33 13 18 1012.8 1012.8 1.6
18/12:30pm 7.6 0.2 5.2 85 1.1 SW 33 46 18 25 1012.9 1012.9 0.6
18/12:25pm 7.8 -1.2 4.6 80 1.4 WSW 41 59 22 32 1013.3 1013.3 0.4
18/12:20pm 8.7 -0.8 4.1 73 2.0 W 43 59 23 32 1013.2 1013.2 0.2
18/12:00pm 11.3 4.0 4.5 63 3.1 W 32 46 17 25 1012.5 1012.5 0.0
18/11:30am 11.8 4.3 6.1 68 2.7 W 35 46 19 25 1012.8 1012.8 0.0
18/11:00am 10.6 2.4 4.9 68 2.6 W 37 48 20 26 1012.7 1012.7 0.0
18/10:40am 10.3 1.7 4.9 69 2.4 W 39 57 21 31 1012.6 1012.6 0.0
18/10:30am 9.9 -0.7 4.9 71 2.2 WSW 50 63 27 34 1012.6 1012.6 0.0
18/10:10am 10.5 0.9 4.2 65 2.8 W 44 78 24 42 1012.1 1012.1 0.0
18/10:00am 11.5 2.8 6.2 70 2.5 W 41 50 22 27 1012.2 1012.2 0.0
18/09:33am 11.2 4.0 5.7 69 2.5 W 33 54 18 29 1011.8 1011.8 0.0
18/09:30am 11.5 4.6 6.4 71 2.4 W 32 39 17 21 1011.9 1011.9 0.0
18/09:00am 10.9 3.8 6.5 74 2.1 W 33 44 18 24 1011.6 1011.6 2.6
18/08:30am 10.2 1.9 6.2 76 1.9 W 39 52 21 28 1011.5 1011.5 2.6
18/08:29am 10.3 2.4 6.3 76 1.9 W 37 52 20 28 1011.5 1011.5 2.6
18/08:00am 10.4 2.5 6.2 75 2.0 WNW 37 50 20 27 1011.3 1011.3 2.6
18/07:30am 10.4 3.6 6.9 79 1.7 WNW 32 43 17 23 1010.9 1010.9 2.6
18/07:00am 10.4 4.4 6.9 79 1.7 WNW 28 35 15 19 1010.6 1010.6 2.6
18/06:30am 10.9 6.3 8.3 84 1.3 NW 22 30 12 16 1010.4 1010.4 2.6
18/06:00am 10.9 6.3 8.3 84 1.3 NW 22 30 12 16 1010.1 1010.1 2.2
18/05:30am 11.2 7.3 9.3 88 1.0 NW 20 24 11 13 1010.1 1010.1 2.2
18/05:00am 11.3 8.0 9.6 89 0.9 NW 17 24 9 13 1010.0 1010.0 2.2
18/04:30am 11.6 8.4 9.9 89 0.9 NNW 17 22 9 12 1010.3 1010.3 2.2
18/04:00am 11.8 8.6 10.0 89 0.9 NNW 17 22 9 12 1010.2 1010.2 2.2
18/03:30am 11.8 8.6 10.0 89 0.9 NW 17 22 9 12 1010.1 1010.1 2.2
18/03:28am 11.8 9.0 10.0 89 0.9 NW 15 22 8 12 1010.1 1010.1 2.2
18/03:08am 12.1 9.0 10.2 88 1.0 NW 17 24 9 13 1010.5 1010.5 1.4
18/03:00am 12.1 9.4 10.2 88 1.0 WNW 15 19 8 10 1010.5 1010.5 0.6
18/02:30am 11.3 9.3 8.5 83 1.4 N 9 11 5 6 1010.1 1010.1 0.0
18/02:00am 11.2 8.4 8.4 83 1.4 NNW 13 15 7 8 1010.3 1010.3 0.0
18/01:30am 10.6 7.8 8.4 86 1.1 N 13 15 7 8 1010.2 1010.2 0.0
18/01:00am 10.6 8.0 7.8 83 1.4 NNE 11 11 6 6 1010.2 1010.2 0.0
18/12:30am 11.1 8.5 7.8 80 1.6 NE 11 15 6 8 1009.7 1009.7 0.0
18/12:00am 12.3 9.8 8.0 75 2.1 NE 11 13 6 7 1009.7 1009.7 0.0
 
Date/Time
CST
Temp
°C
App
Temp
°C
Dew
Point
°C
Rel
Hum
%
Delta-T
°C
Wind Press
QNH
hPa
Press
MSL
hPa
Rain since
9am
mm
Dir  Spd
km/h
Gust
km/h
Spd
kts
Gust
kts
17/11:30pm 13.2 11.3 8.9 75 2.2 ENE 9 11 5 6 1009.7 1009.7 0.0
17/11:00pm 12.6 10.6 8.5 76 2.0 N 9 15 5 8 1010.0 1010.0 0.0
17/10:30pm 12.9 10.1 8.6 75 2.2 NNE 13 17 7 9 1009.7 1009.7 0.0
17/10:00pm 12.6 10.1 8.3 75 2.1 N 11 15 6 8 1010.1 1010.1 0.0
17/09:30pm 13.8 10.9 8.2 69 2.8 NNE 13 15 7 8 1010.2 1010.2 0.0
17/09:00pm 15.4 11.8 8.4 63 3.5 NE 17 20 9 11 1010.3 1010.3 0.0
17/08:30pm 15.4 11.9 8.6 64 3.5 NE 17 20 9 11 1010.7 1010.7 0.0
17/08:00pm 15.6 12.4 8.6 63 3.6 NE 15 20 8 11 1011.1 1011.1 0.0
17/07:30pm 15.5 12.1 9.0 65 3.3 NE 17 19 9 10 1011.1 1011.1 0.0
17/07:00pm 15.8 11.7 8.8 63 3.6 NE 20 24 11 13 1010.8 1010.8 0.0
17/06:30pm 15.8 12.0 9.2 65 3.4 NE 19 24 10 13 1011.2 1011.2 0.0
17/06:00pm 15.5 11.8 9.4 67 3.2 NE 19 22 10 12 1011.4 1011.4 0.0
17/05:30pm 16.0 13.1 9.7 66 3.3 NE 15 19 8 10 1011.8 1011.8 0.0
17/05:00pm 16.2 13.5 10.3 68 3.1 NE 15 19 8 10 1012.1 1012.1 0.0
17/04:30pm 16.9 13.1 9.8 63 3.7 NNE 20 24 11 13 1012.1 1012.1 0.0
17/04:00pm 17.4 14.0 10.5 64 3.7 NNE 19 22 10 12 1012.0 1012.0 0.0
17/03:30pm 17.6 14.0 10.5 63 3.8 NE 20 24 11 13 1012.4 1012.4 0.0
17/03:00pm 17.9 14.7 9.8 59 4.3 N 17 24 9 13 1012.8 1012.8 0.0
17/02:30pm 18.1 14.5 9.7 58 4.4 NNE 19 28 10 15 1013.2 1013.2 0.0
17/02:00pm 18.0 14.3 9.6 58 4.4 NNE 19 30 10 16 1014.0 1014.0 0.0
17/01:30pm 16.9 11.8 9.1 60 4.0 N 26 35 14 19 1014.4 1014.4 0.0
17/01:00pm 17.7 12.8 10.1 61 4.0 NNE 26 35 14 19 1015.0 1015.0 0.0
17/12:30pm 16.9 11.6 8.6 58 4.3 NNE 26 35 14 19 1015.8 1015.8 0.0
17/12:00pm 15.8 10.4 8.1 60 3.9 NE 26 35 14 19 1016.5 1016.5 0.0
17/11:30am 15.5 9.3 7.8 60 3.8 NE 30 37 16 20 1017.3 1017.3 0.0
17/11:00am 14.8 9.1 6.9 59 3.9 NNE 26 35 14 19 1017.7 1017.7 0.0
17/10:30am 14.2 8.3 7.3 63 3.4 NE 28 35 15 19 1018.0 1018.0 0.0
17/10:00am 13.0 6.0 6.1 63 3.3 NE 32 37 17 20 1018.5 1018.5 0.0
17/09:30am 12.3 5.7 6.1 66 2.9 NE 30 37 16 20 1018.7 1018.7 0.0
17/09:00am 11.3 5.0 5.8 69 2.5 NE 28 35 15 19 1019.2 1019.2 0.0
17/08:30am 10.6 5.3 5.2 69 2.5 NE 22 28 12 15 1019.4 1019.4 0.0
17/08:00am 9.3 5.7 4.9 74 2.0 NE 13 17 7 9 1019.4 1019.4 0.0
17/07:30am 8.4 4.7 4.2 75 1.8 ENE 13 19 7 10 1019.6 1019.6 0.0
17/07:00am 7.3 3.5 3.7 78 1.5 ENE 13 17 7 9 1019.9 1019.9 0.0
17/06:30am 6.8 3.4 4.1 83 1.2 E 11 17 6 9 1019.9 1019.9 0.0
17/06:00am 5.7 1.9 3.7 87 0.8 NE 13 15 7 8 1020.1 1020.1 0.0
17/05:30am 6.1 2.7 3.9 86 0.9 NE 11 13 6 7 1019.9 1019.9 0.0
17/05:00am 6.5 3.5 4.3 86 0.9 NE 9 11 5 6 1019.8 1019.8 0.0
17/04:30am 7.2 4.1 3.8 79 1.4 NE 9 13 5 7 1019.8 1019.8 0.0
17/04:00am 9.0 5.7 4.8 75 1.9 ENE 11 15 6 8 1020.0 1020.0 0.0
17/03:30am 9.0 5.8 5.2 77 1.7 NE 11 15 6 8 1020.0 1020.0 0.0
17/03:00am 9.4 6.4 5.9 79 1.6 NNE 11 13 6 7 1020.3 1020.3 0.0
17/02:30am 10.4 8.0 5.4 71 2.3 ENE 7 9 4 5 1020.5 1020.5 0.0
17/02:00am 10.6 8.3 5.6 71 2.3 ENE 7 11 4 6 1020.9 1020.9 0.0
17/01:30am 10.6 8.1 6.4 75 2.0 NE 9 11 5 6 1021.1 1021.1 0.0
17/01:00am 10.4 8.1 7.5 82 1.4 NNE 9 11 5 6 1021.3 1021.3 0.0
17/12:30am 10.4 8.8 8.0 85 1.2 N 6 7 3 4 1021.4 1021.4 0.0
17/12:00am 10.4 9.5 7.6 83 1.3 N 2 9 1 5 1021.4 1021.4 0.0
 
Date/Time
CST
Temp
°C
App
Temp
°C
Dew
Point
°C
Rel
Hum
%
Delta-T
°C
Wind Press
QNH
hPa
Press
MSL
hPa
Rain since
9am
mm
Dir  Spd
km/h
Gust
km/h
Spd
kts
Gust
kts
16/11:30pm 10.5 9.2 7.6 82 1.4 WNW 4 6 2 3 1021.5 1021.5 0.0
16/11:00pm 10.9 10.3 7.4 79 1.7 CALM 0 0 0 0 1021.7 1021.7 0.0
16/10:30pm 10.8 9.5 7.5 80 1.6 NW 4 6 2 3 1021.6 1021.6 0.0
16/10:00pm 11.3 10.7 7.4 77 1.9 CALM 0 0 0 0 1021.7 1021.7 0.0
16/09:30pm 11.8 9.9 6.9 72 2.3 SSE 6 7 3 4 1021.5 1021.5 0.0
16/09:00pm 12.0 10.2 7.1 72 2.3 SE 6 9 3 5 1021.7 1021.7 0.0
16/08:30pm 12.2 9.9 7.3 72 2.4 SE 9 11 5 6 1021.7 1021.7 0.0
16/08:00pm 12.5 10.7 7.8 73 2.3 ESE 7 11 4 6 1021.7 1021.7 0.0
16/07:30pm 12.6 10.9 7.7 72 2.4 SE 6 9 3 5 1021.7 1021.7 0.0
16/07:00pm 12.6 11.0 8.1 74 2.2 SE 6 7 3 4 1021.4 1021.4 0.0
16/06:30pm 12.8 10.7 8.3 74 2.2 SSE 9 15 5 8 1021.0 1021.0 0.0
16/06:00pm 13.0 10.6 8.5 74 2.2 SSE 11 15 6 8 1020.6 1020.6 0.0
16/05:30pm 13.2 10.4 8.7 74 2.2 SSE 13 19 7 10 1020.4 1020.4 0.0
16/05:00pm 13.5 10.4 8.8 73 2.4 SSE 15 20 8 11 1020.3 1020.3 0.0
16/04:30pm 14.1 9.8 9.3 73 2.4 SSW 22 30 12 16 1020.0 1020.0 0.0
16/04:00pm 13.8 9.4 9.0 73 2.4 SSW 22 28 12 15 1019.8 1019.8 0.0
16/03:30pm 14.2 9.0 9.0 71 2.6 SW 26 32 14 17 1019.6 1019.6 0.0
16/03:00pm 15.3 10.5 10.3 72 2.6 WSW 26 32 14 17 1019.3 1019.3 0.0
16/02:30pm 14.9 9.9 9.7 71 2.7 SW 26 32 14 17 1019.2 1019.2 0.0
16/02:00pm 14.8 9.6 10.2 74 2.4 SW 28 35 15 19 1019.0 1019.0 0.0
16/01:30pm 15.0 9.3 9.8 71 2.7 SW 30 39 16 21 1018.8 1018.8 0.0
16/01:00pm 15.1 9.7 9.5 69 2.9 SW 28 35 15 19 1019.1 1019.1 0.0
16/12:30pm 15.2 9.7 10.6 74 2.4 SW 30 39 16 21 1019.1 1019.1 0.0
16/12:00pm 14.6 9.1 10.4 76 2.2 SW 30 37 16 20 1019.1 1019.1 0.0
16/11:30am 14.5 9.8 10.5 77 2.1 SW 26 33 14 18 1019.1 1019.1 0.0
16/11:03am 14.5 10.5 10.5 77 2.1 SW 22 30 12 16 1018.8 1018.8 0.0
16/11:00am 14.5 10.1 10.5 77 2.1 SW 24 32 13 17 1018.8 1018.8 0.0
16/10:30am 13.9 8.1 10.7 81 1.7 SW 32 39 17 21 1018.3 1018.3 0.0
16/10:00am 13.4 8.8 10.9 85 1.3 W 26 33 14 18 1018.2 1018.2 0.0
16/09:30am 13.3 9.1 11.0 86 1.2 WNW 24 32 13 17 1018.0 1018.0 0.0
16/09:00am 12.8 8.8 10.3 85 1.3 WNW 22 28 12 15 1018.2 1018.2 0.0
16/08:51am 12.9 8.9 10.3 84 1.3 WNW 22 28 12 15 1018.1 1018.1 0.0
16/08:30am 13.1 9.0 10.1 82 1.5 NW 22 32 12 17 1017.9 1017.9 0.0
16/08:00am 13.1 9.5 10.5 84 1.4 NW 20 26 11 14 1017.6 1017.6 0.0
16/07:30am 11.8 8.9 9.5 86 1.2 NW 15 19 8 10 1017.4 1017.4 0.0
16/07:00am 11.3 9.6 7.4 77 1.9 NNE 6 7 3 4 1016.9 1016.9 0.0
16/06:40am 11.2 9.4 7.3 77 1.9 N 6 9 3 5 1016.9 1016.9 0.0
16/06:30am 11.4 9.3 8.4 82 1.5 NW 9 20 5 11 1017.3 1017.3 0.0
16/06:26am 11.7 8.9 8.7 82 1.5 NW 13 20 7 11 1017.3 1017.3 0.0
16/06:00am 11.9 9.6 5.8 66 2.8 NNE 7 9 4 5 1017.2 1017.2 0.0
16/05:30am 11.4 8.8 6.1 70 2.5 NE 9 11 5 6 1016.9 1016.9 0.0
16/05:00am 11.9 9.2 5.8 66 2.8 NNE 9 11 5 6 1016.7 1016.7 0.0
16/04:30am 12.8 9.2 4.8 58 3.7 NNW 13 17 7 9 1016.8 1016.8 0.0
16/04:00am 12.4 9.3 3.6 55 3.9 NW 9 13 5 7 1016.4 1016.4 0.0
16/03:30am 13.2 10.1 1.5 45 5.0 NNE 7 9 4 5 1016.0 1016.0 0.0
16/03:00am 13.6 10.0 0.9 42 5.4 NE 9 13 5 7 1015.5 1015.5 0.0
16/02:30am 13.6 9.1 -0.1 39 5.7 NNE 13 15 7 8 1015.0 1015.0 0.0
16/02:00am 13.6 8.8 0.3 40 5.6 N 15 20 8 11 1014.9 1014.9 0.0
16/01:30am 13.6 8.9 0.6 41 5.5 N 15 20 8 11 1015.2 1015.2 0.0
16/01:00am 13.2 8.8 0.3 41 5.4 N 13 19 7 10 1014.7 1014.7 0.0
16/12:30am 13.2 8.5 0.9 43 5.2 NNE 15 20 8 11 1014.8 1014.8 0.0
16/12:00am 13.8 8.8 1.5 43 5.3 NNE 17 20 9 11 1014.9 1014.9 0.0
 
Date/Time
CST
Temp
°C
App
Temp
°C
Dew
Point
°C
Rel
Hum
%
Delta-T
°C
Wind Press
QNH
hPa
Press
MSL
hPa
Rain since
9am
mm
Dir  Spd
km/h
Gust
km/h
Spd
kts
Gust
kts
15/11:30pm 14.1 9.1 1.1 41 5.6 NE 17 20 9 11 1015.2 1015.2 0.0
15/11:00pm 14.1 9.5 1.4 42 5.5 NE 15 19 8 10 1015.4 1015.4 0.0
15/10:30pm 13.9 9.4 2.2 45 5.1 NE 15 20 8 11 1015.6 1015.6 0.0
15/10:00pm 14.1 8.8 2.0 44 5.3 NE 19 24 10 13 1015.4 1015.4 0.0
15/09:30pm 14.4 9.0 2.3 44 5.3 NNE 20 24 11 13 1015.5 1015.5 0.0
15/09:00pm 15.2 9.4 2.4 42 5.7 NE 22 28 12 15 1015.4 1015.4 0.0
15/08:30pm 15.7 9.6 2.8 42 5.8 NE 24 30 13 16 1015.7 1015.7 0.0
15/08:00pm 15.4 10.4 4.8 49 5.0 NE 20 28 11 15 1015.6 1015.6 0.0
15/07:30pm 15.4 10.6 5.6 52 4.7 NE 20 26 11 14 1015.8 1015.8 0.0
15/07:00pm 15.5 11.0 6.8 56 4.3 NE 20 24 11 13 1015.8 1015.8 0.0
15/06:30pm 14.9 10.9 8.2 64 3.4 NE 19 22 10 12 1015.9 1015.9 0.0
15/06:00pm 15.2 11.6 8.2 63 3.5 NE 17 19 9 10 1015.9 1015.9 0.0
15/05:30pm 16.3 12.9 7.8 57 4.3 NNE 15 20 8 11 1016.1 1016.1 0.0
15/05:00pm 16.9 13.1 7.5 54 4.7 NNE 17 22 9 12 1016.0 1016.0 0.0
15/04:30pm 17.8 13.9 7.0 49 5.4 N 17 24 9 13 1016.1 1016.1 0.0
15/04:00pm 19.1 14.4 6.2 43 6.4 N 20 30 11 16 1015.8 1015.8 0.0
15/03:30pm 19.0 12.1 2.8 34 7.5 N 28 37 15 20 1015.7 1015.7 0.0
15/03:00pm 18.8 12.1 3.4 36 7.2 N 28 41 15 22 1016.1 1016.1 0.0
15/02:30pm 18.7 12.8 4.1 38 6.9 N 24 32 13 17 1016.4 1016.4 0.0

Latest Capital City Observations: Canberra | Sydney | Melbourne | Brisbane | Adelaide | Perth | Hobart | Darwin

Other formats

Comma delimited format used in spreadsheet applications
http://www.bom.gov.au/fwo/IDS60901/IDS60901.95676.axf

JavaScript Object Notation format (JSON) in row-major order
http://www.bom.gov.au/fwo/IDS60901/IDS60901.95676.json

Data quality

Most of these data are generated automatically and are frequently updated. Quality checks on data are not normally performed. It is possible for incorrect values to appear. Refer to information at About Latest Weather Observations and please check the disclaimer before using these data.